createdAt,value
2018-02-04T00:02:08.767Z,101690.30
2018-02-04T00:04:41.818Z,101689.80
2018-02-04T00:07:13.379Z,101682.63
2018-02-04T00:09:44.685Z,101689.81
2018-02-04T00:12:15.764Z,101685.41
2018-02-04T00:14:46.763Z,101692.59
2018-02-04T00:17:17.695Z,101694.23
2018-02-04T00:19:48.842Z,101695.44
2018-02-04T00:22:26.769Z,101695.23
2018-02-04T00:24:57.889Z,101701.81
2018-02-04T00:27:29.040Z,101702.48
2018-02-04T00:30:00.158Z,101702.84
2018-02-04T00:32:32.195Z,101705.91
2018-02-04T00:35:03.717Z,101706.89
2018-02-04T00:37:34.784Z,101706.40
2018-02-04T00:40:05.751Z,101700.73
2018-02-04T00:42:36.895Z,101708.25
2018-02-04T00:45:08.235Z,101701.73
2018-02-04T00:47:40.917Z,101704.05
2018-02-04T00:50:12.110Z,101702.06
2018-02-04T00:52:43.297Z,101708.02
2018-02-04T00:55:14.420Z,101707.95
2018-02-04T00:57:45.381Z,101712.03
2018-02-04T01:00:16.980Z,101704.22
2018-02-04T01:02:48.094Z,101706.16
2018-02-04T01:05:21.040Z,101710.59
2018-02-04T01:07:52.663Z,101705.92
2018-02-04T01:10:24.000Z,101707.56
2018-02-04T01:12:56.532Z,101705.20
2018-02-04T01:15:27.456Z,101704.17
2018-02-04T01:17:58.253Z,101702.97
2018-02-04T01:20:29.832Z,101709.87
2018-02-04T01:23:01.849Z,101709.33
2018-02-04T01:25:35.471Z,101706.02
2018-02-04T01:28:06.162Z,101701.99
2018-02-04T01:30:37.689Z,101695.94
2018-02-04T01:33:09.034Z,101695.57
2018-02-04T01:35:40.574Z,101690.28
2018-02-04T01:38:11.493Z,101696.75
2018-02-04T01:40:43.255Z,101693.05
2018-02-04T01:43:14.805Z,101691.20
2018-02-04T01:45:46.120Z,101694.19
2018-02-04T01:48:17.096Z,101696.84
2018-02-04T01:50:48.204Z,101692.66
2018-02-04T01:53:19.198Z,101693.16
2018-02-04T01:55:51.074Z,101702.89
2018-02-04T01:58:23.532Z,101701.67
2018-02-04T02:00:55.193Z,101703.02
2018-02-04T02:03:27.378Z,101706.76
2018-02-04T02:05:58.384Z,101706.77
2018-02-04T02:08:29.982Z,101702.61
2018-02-04T02:11:01.579Z,101704.66
2018-02-04T02:13:34.704Z,101704.25
2018-02-04T02:16:05.847Z,101712.37
2018-02-04T02:18:36.863Z,101708.83
2018-02-04T02:21:08.112Z,101715.94
2018-02-04T02:23:39.855Z,101717.89
2018-02-04T02:26:10.807Z,101722.45
2018-02-04T02:28:41.937Z,101723.42
2018-02-04T02:31:13.284Z,101724.39
2018-02-04T02:33:44.428Z,101729.58
2018-02-04T02:36:15.594Z,101728.93
2018-02-04T02:38:46.949Z,101722.75
2018-02-04T02:41:18.267Z,101727.56
2018-02-04T02:43:49.634Z,101729.67
2018-02-04T02:46:21.018Z,101723.94
2018-02-04T02:48:53.137Z,101729.56
2018-02-04T02:51:24.069Z,101730.65
2018-02-04T02:53:55.632Z,101730.06
2018-02-04T02:56:26.783Z,101732.88
2018-02-04T02:58:58.022Z,101737.81
2018-02-04T03:01:29.571Z,101731.08
2018-02-04T03:04:01.279Z,101734.19
2018-02-04T03:06:33.044Z,101726.76
2018-02-04T03:09:05.760Z,101726.77
2018-02-04T03:11:36.949Z,101726.88
2018-02-04T03:14:10.944Z,101730.03
2018-02-04T03:16:43.338Z,101726.09
2018-02-04T03:19:14.499Z,101724.92
2018-02-04T03:21:45.808Z,101726.17
2018-02-04T03:24:17.188Z,101725.54
2018-02-04T03:26:48.417Z,101728.55
2018-02-04T03:29:19.442Z,101725.95
2018-02-04T03:31:50.580Z,101723.95
2018-02-04T03:34:21.924Z,101727.25
2018-02-04T03:36:53.480Z,101727.48
2018-02-04T03:39:24.417Z,101730.83
2018-02-04T03:41:55.406Z,101731.90
2018-02-04T03:44:26.631Z,101728.91
2018-02-04T03:46:57.645Z,101730.20
2018-02-04T03:49:28.680Z,101735.14
2018-02-04T03:51:59.875Z,101739.00
2018-02-04T03:54:31.027Z,101738.75
2018-02-04T03:57:02.116Z,101739.70
2018-02-04T03:59:33.214Z,101737.82
2018-02-04T04:02:04.393Z,101734.41
2018-02-04T04:04:35.741Z,101743.86
2018-02-04T04:07:07.507Z,101738.38
2018-02-04T04:09:39.365Z,101739.27
2018-02-04T04:12:11.736Z,101740.29
2018-02-04T04:14:42.980Z,101741.89
2018-02-04T04:17:15.477Z,101737.28
2018-02-04T04:19:47.150Z,101745.84
2018-02-04T04:22:18.873Z,101737.81
2018-02-04T04:24:51.061Z,101736.56
2018-02-04T04:27:23.318Z,101743.00
2018-02-04T04:29:54.690Z,101743.27
2018-02-04T04:32:25.992Z,101743.70
2018-02-04T04:34:57.339Z,101737.66
2018-02-04T04:37:28.993Z,101739.47
2018-02-04T04:40:00.471Z,101742.08
2018-02-04T04:42:32.225Z,101740.80
2018-02-04T04:45:03.921Z,101741.00
2018-02-04T04:47:35.470Z,101738.72
2018-02-04T04:50:06.452Z,101745.03
2018-02-04T04:52:38.114Z,101739.52
2018-02-04T04:55:09.176Z,101745.51
2018-02-04T04:57:40.156Z,101744.36
2018-02-04T05:00:11.312Z,101744.64
2018-02-04T05:02:42.644Z,101748.75
2018-02-04T05:05:13.279Z,101746.42
2018-02-04T05:07:44.477Z,101751.63
2018-02-04T05:10:16.496Z,101749.88
2018-02-04T05:12:47.564Z,101758.91
2018-02-04T05:15:18.537Z,101757.70
2018-02-04T05:17:49.909Z,101759.73
2018-02-04T05:20:21.320Z,101747.81
2018-02-04T05:22:52.667Z,101757.23
2018-02-04T05:25:23.999Z,101762.30
2018-02-04T05:27:55.058Z,101745.31
2018-02-04T05:30:25.977Z,101758.57
2018-02-04T05:32:57.183Z,101757.25
2018-02-04T05:35:28.066Z,101755.45
2018-02-04T05:37:59.913Z,101755.30
2018-02-04T05:40:31.165Z,101750.29
2018-02-04T05:43:02.167Z,101758.41
2018-02-04T05:45:33.873Z,101756.61
2018-02-04T05:48:05.064Z,101757.70
2018-02-04T05:50:37.266Z,101756.61
2018-02-04T05:53:08.605Z,101760.79
2018-02-04T05:55:39.968Z,101757.27
2018-02-04T05:58:10.702Z,101762.22
2018-02-04T06:00:42.061Z,101769.67
2018-02-04T06:03:13.195Z,101759.41
2018-02-04T06:05:44.076Z,101753.15
2018-02-04T06:08:14.876Z,101758.05
2018-02-04T06:10:46.022Z,101749.71
2018-02-04T06:13:17.157Z,101752.10
2018-02-04T06:15:48.269Z,101762.52
2018-02-04T06:18:19.036Z,101745.50
2018-02-04T06:20:50.614Z,101751.36
2018-02-04T06:23:21.729Z,101752.89
2018-02-04T06:25:52.803Z,101748.97
2018-02-04T06:28:23.918Z,101757.64
2018-02-04T06:30:55.156Z,101752.84
2018-02-04T06:33:26.240Z,101752.58
2018-02-04T06:35:57.245Z,101752.80
2018-02-04T06:38:28.463Z,101741.22
2018-02-04T06:40:59.496Z,101753.58
2018-02-04T06:43:30.472Z,101738.91
2018-02-04T06:46:01.525Z,101742.94
2018-02-04T06:48:32.520Z,101746.05
2018-02-04T06:51:03.604Z,101741.84
2018-02-04T06:53:34.571Z,101749.52
2018-02-04T06:56:05.324Z,101747.30
2018-02-04T06:58:36.322Z,101744.23
2018-02-04T07:01:07.552Z,101743.56
2018-02-04T07:03:38.810Z,101740.93
2018-02-04T07:06:10.350Z,101739.09
2018-02-04T07:08:41.700Z,101740.62
2018-02-04T07:11:12.782Z,101743.27
2018-02-04T07:13:44.433Z,101733.02
2018-02-04T07:16:15.721Z,101734.73
2018-02-04T07:18:47.147Z,101735.86
2018-02-04T07:21:18.430Z,101743.17
2018-02-04T07:23:49.784Z,101729.84
2018-02-04T07:26:20.748Z,101737.17
2018-02-04T07:28:51.835Z,101733.94
2018-02-04T07:31:23.088Z,101739.30
2018-02-04T07:33:54.194Z,101736.45
2018-02-04T07:36:25.540Z,101742.34
2018-02-04T07:38:56.674Z,101741.25
2018-02-04T07:41:27.783Z,101744.48
2018-02-04T07:43:58.728Z,101742.27
2018-02-04T07:46:29.562Z,101741.39
2018-02-04T07:49:00.788Z,101734.74
2018-02-04T07:51:31.703Z,101733.47
2018-02-04T07:54:02.689Z,101726.63
2018-02-04T07:56:33.266Z,101728.94
2018-02-04T07:59:04.612Z,101730.05
2018-02-04T08:01:35.741Z,101734.94
2018-02-04T08:04:06.796Z,101735.41
2018-02-04T08:06:38.058Z,101736.45
2018-02-04T08:09:09.164Z,101743.28
2018-02-04T08:11:40.506Z,101737.86
2018-02-04T08:14:11.659Z,101736.57
2018-02-04T08:16:42.826Z,101733.30
2018-02-04T08:19:13.945Z,101724.23
2018-02-04T08:21:44.804Z,101726.23
2018-02-04T08:24:15.829Z,101727.97
2018-02-04T08:26:47.185Z,101717.80
2018-02-04T08:29:18.521Z,101721.30
2018-02-04T08:31:49.840Z,101718.09
2018-02-04T08:34:20.988Z,101716.23
2018-02-04T08:36:52.197Z,101719.03
2018-02-04T08:39:23.308Z,101725.08
2018-02-04T08:41:54.650Z,101722.92
2018-02-04T08:44:25.892Z,101720.22
2018-02-04T08:46:56.732Z,101721.55
2018-02-04T08:49:27.836Z,101718.98
2018-02-04T08:51:58.710Z,101718.46
2018-02-04T08:54:30.009Z,101718.02
2018-02-04T08:57:01.133Z,101717.36
2018-02-04T08:59:32.265Z,101707.67
2018-02-04T09:02:03.385Z,101701.36
2018-02-04T09:04:34.294Z,101708.10
2018-02-04T09:07:05.196Z,101707.63
2018-02-04T09:09:36.510Z,101713.32
2018-02-04T09:12:07.556Z,101709.95
2018-02-04T09:14:38.737Z,101706.81
2018-02-04T09:17:09.477Z,101711.75
2018-02-04T09:19:40.774Z,101707.44
2018-02-04T09:22:11.889Z,101703.38
2018-02-04T09:24:42.870Z,101710.12
2018-02-04T09:27:13.970Z,101713.11
2018-02-04T09:29:45.074Z,101714.56
2018-02-04T09:32:16.121Z,101702.05
2018-02-04T09:34:47.244Z,101700.16
2018-02-04T09:37:18.854Z,101702.27
2018-02-04T09:39:49.753Z,101698.91
2018-02-04T09:42:20.852Z,101704.33
2018-02-04T09:44:52.775Z,101707.33
2018-02-04T09:47:23.805Z,101711.25
2018-02-04T09:49:54.885Z,101712.66
2018-02-04T09:52:26.089Z,101717.55
2018-02-04T09:54:57.416Z,101711.35
2018-02-04T09:57:28.713Z,101710.08
2018-02-04T09:59:59.933Z,101716.03
2018-02-04T10:02:30.966Z,101715.59
2018-02-04T10:05:01.810Z,101705.37
2018-02-04T10:07:32.730Z,101708.91
2018-02-04T10:10:03.821Z,101710.17
2018-02-04T10:12:34.798Z,101713.72
2018-02-04T10:15:05.760Z,101720.28
2018-02-04T10:17:36.638Z,101713.56
2018-02-04T10:20:07.614Z,101723.09
2018-02-04T10:22:38.516Z,101721.74
2018-02-04T10:25:09.520Z,101713.18
2018-02-04T10:27:40.705Z,101721.81
2018-02-04T10:30:12.190Z,101716.61
2018-02-04T10:32:43.091Z,101720.44
2018-02-04T10:35:13.877Z,101726.21
2018-02-04T10:37:44.973Z,101725.61
2018-02-04T10:40:16.355Z,101732.31
2018-02-04T10:42:47.212Z,101734.95
2018-02-04T10:45:18.215Z,101739.79
2018-02-04T10:47:49.841Z,101741.23
2018-02-04T10:50:21.209Z,101739.84
2018-02-04T10:52:52.496Z,101744.86
2018-02-04T10:55:23.667Z,101744.86
2018-02-04T10:57:54.573Z,101743.71
2018-02-04T11:00:25.995Z,101745.75
2018-02-04T11:02:57.566Z,101745.94
2018-02-04T11:05:28.766Z,101743.12
2018-02-04T11:07:59.745Z,101752.88
2018-02-04T11:10:30.920Z,101751.02
2018-02-04T11:13:02.101Z,101757.86
2018-02-04T11:15:33.452Z,101765.54
2018-02-04T11:18:04.698Z,101758.41
2018-02-04T11:20:35.708Z,101753.83
2018-02-04T11:23:06.781Z,101763.69
2018-02-04T11:25:37.788Z,101757.34
2018-02-04T11:28:08.774Z,101756.14
2018-02-04T11:30:40.304Z,101748.64
2018-02-04T11:33:11.242Z,101747.68
2018-02-04T11:35:42.905Z,101751.98
2018-02-04T11:38:13.530Z,101751.34
2018-02-04T11:40:44.646Z,101754.91
2018-02-04T11:43:15.407Z,101752.37
2018-02-04T11:45:46.969Z,101751.16
2018-02-04T11:48:18.229Z,101750.62
2018-02-04T11:50:49.193Z,101756.40
2018-02-04T11:53:20.727Z,101749.34
2018-02-04T11:55:52.098Z,101754.27
2018-02-04T11:58:23.271Z,101753.02
2018-02-04T12:00:54.615Z,101759.22
2018-02-04T12:03:25.703Z,101759.21
2018-02-04T12:05:57.069Z,101763.19
2018-02-04T12:08:28.392Z,101766.08
2018-02-04T12:10:59.278Z,101773.93
2018-02-04T12:13:30.717Z,101768.08
2018-02-04T12:16:01.604Z,101772.95
2018-02-04T12:18:32.593Z,101778.27
2018-02-04T12:21:03.698Z,101781.34
2018-02-04T12:23:34.889Z,101775.03
2018-02-04T12:26:05.997Z,101776.48
2018-02-04T12:28:36.919Z,101782.43
2018-02-04T12:31:07.842Z,101774.55
2018-02-04T12:33:38.838Z,101771.84
2018-02-04T12:36:09.956Z,101770.40
2018-02-04T12:38:41.218Z,101778.45
2018-02-04T12:41:12.901Z,101774.31
2018-02-04T12:43:44.458Z,101773.97
2018-02-04T12:46:15.716Z,101777.11
2018-02-04T12:48:46.785Z,101775.50
2018-02-04T12:51:18.321Z,101781.33
2018-02-04T12:53:50.048Z,101781.50
2018-02-04T12:56:21.633Z,101780.80
2018-02-04T12:58:53.087Z,101783.14
2018-02-04T13:01:23.898Z,101783.77
2018-02-04T13:03:55.600Z,101784.66
2018-02-04T13:06:26.560Z,101785.73
2018-02-04T13:08:57.658Z,101788.94
2018-02-04T13:11:29.088Z,101794.30
2018-02-04T13:14:00.525Z,101778.45
2018-02-04T13:16:31.588Z,101783.13
2018-02-04T13:19:02.536Z,101781.76
2018-02-04T13:21:33.690Z,101780.14
2018-02-04T13:24:05.222Z,101781.63
2018-02-04T13:26:36.146Z,101774.50
2018-02-04T13:29:07.076Z,101769.84
2018-02-04T13:31:38.261Z,101774.66
2018-02-04T13:34:09.136Z,101772.80
2018-02-04T13:36:40.131Z,101775.55
2018-02-04T13:39:11.539Z,101773.70
2018-02-04T13:41:42.392Z,101775.45
2018-02-04T13:44:13.494Z,101763.17
2018-02-04T13:46:44.577Z,101767.30
2018-02-04T13:49:15.758Z,101767.58
2018-02-04T13:51:46.776Z,101764.75
2018-02-04T13:54:17.911Z,101766.48
2018-02-04T13:56:49.292Z,101764.97
2018-02-04T13:59:21.025Z,101756.77
2018-02-04T14:01:52.346Z,101768.94
2018-02-04T14:04:23.656Z,101770.08
2018-02-04T14:06:55.060Z,101769.26
2018-02-04T14:09:26.621Z,101776.44
2018-02-04T14:11:57.724Z,101765.91
2018-02-04T14:14:29.158Z,101764.43
2018-02-04T14:17:00.505Z,101764.83
2018-02-04T14:19:31.856Z,101770.58
2018-02-04T14:22:02.748Z,101765.13
2018-02-04T14:24:34.346Z,101772.67
2018-02-04T14:27:05.878Z,101769.67
2018-02-04T14:29:36.768Z,101767.95
2018-02-04T14:32:07.956Z,101769.00
2018-02-04T14:34:39.926Z,101766.79
2018-02-04T14:37:11.471Z,101774.18
2018-02-04T14:39:42.576Z,101779.02
2018-02-04T14:42:13.537Z,101778.28
2018-02-04T14:44:44.669Z,101785.14
2018-02-04T14:47:15.854Z,101788.38
2018-02-04T14:49:47.000Z,101783.05
2018-02-04T14:52:18.358Z,101787.22
2018-02-04T14:54:49.724Z,101791.06
2018-02-04T14:57:21.036Z,101789.66
2018-02-04T14:59:53.860Z,101790.37
2018-02-04T15:02:25.732Z,101792.44
2018-02-04T15:04:56.468Z,101798.06
2018-02-04T15:07:27.875Z,101803.88
2018-02-04T15:09:58.749Z,101805.59
2018-02-04T15:12:29.930Z,101807.63
2018-02-04T15:15:00.926Z,101808.69
2018-02-04T15:17:32.200Z,101818.11
2018-02-04T15:20:03.392Z,101820.63
2018-02-04T15:22:34.447Z,101823.48
2018-02-04T15:25:05.244Z,101825.71
2018-02-04T15:27:36.311Z,101829.11
2018-02-04T15:30:07.041Z,101836.50
2018-02-04T15:32:38.075Z,101845.63
2018-02-04T15:35:09.029Z,101846.39
2018-02-04T15:37:40.861Z,101852.31
2018-02-04T15:40:11.857Z,101863.83
2018-02-04T15:42:43.252Z,101861.67
2018-02-04T15:45:14.392Z,101866.38
2018-02-04T15:47:45.556Z,101862.90
2018-02-04T15:50:16.596Z,101866.53
2018-02-04T15:52:47.845Z,101863.33
2018-02-04T15:55:19.181Z,101868.75
2018-02-04T15:57:50.050Z,101872.73
2018-02-04T16:00:22.097Z,101875.70
2018-02-04T16:02:53.660Z,101882.52
2018-02-04T16:05:24.791Z,101889.11
2018-02-04T16:07:55.919Z,101889.76
2018-02-04T16:10:27.072Z,101891.13
2018-02-04T16:12:58.118Z,101891.22
2018-02-04T16:15:29.374Z,101888.98
2018-02-04T16:18:00.752Z,101891.66
2018-02-04T16:20:32.252Z,101887.17
2018-02-04T16:23:03.715Z,101885.80
2018-02-04T16:25:35.081Z,101886.16
2018-02-04T16:28:06.952Z,101891.66
2018-02-04T16:30:38.081Z,101892.06
2018-02-04T16:33:08.600Z,101894.52
2018-02-04T16:35:39.617Z,101899.65
2018-02-04T16:38:10.584Z,101902.41
2018-02-04T16:40:41.617Z,101905.82
2018-02-04T16:43:13.112Z,101910.95
2018-02-04T16:45:44.389Z,101910.59
2018-02-04T16:48:15.343Z,101921.05
2018-02-04T16:50:46.405Z,101919.20
2018-02-04T16:53:18.044Z,101912.55
2018-02-04T16:55:49.122Z,101912.95
2018-02-04T16:58:20.240Z,101909.90
2018-02-04T17:00:51.385Z,101905.26
2018-02-04T17:03:22.643Z,101910.24
2018-02-04T17:05:53.674Z,101910.83
2018-02-04T17:08:25.008Z,101924.05
2018-02-04T17:10:56.374Z,101916.14
2018-02-04T17:13:27.514Z,101909.84
2018-02-04T17:15:58.564Z,101903.72
2018-02-04T17:18:29.765Z,101899.53
2018-02-04T17:21:01.298Z,101904.19
2018-02-04T17:23:32.620Z,101900.31
2018-02-04T17:26:03.601Z,101915.20
2018-02-04T17:28:35.207Z,101913.61
2018-02-04T17:31:06.298Z,101913.62
2018-02-04T17:33:37.293Z,101918.86
2018-02-04T17:36:08.857Z,101920.67
2018-02-04T17:38:40.173Z,101922.50
2018-02-04T17:41:11.778Z,101918.83
2018-02-04T17:43:43.247Z,101922.44
2018-02-04T17:46:14.203Z,101915.93
2018-02-04T17:48:46.268Z,101919.69
2018-02-04T17:51:17.927Z,101917.10
2018-02-04T17:53:49.696Z,101923.02
2018-02-04T17:56:21.355Z,101921.44
2018-02-04T17:58:52.663Z,101913.48
2018-02-04T18:01:24.774Z,101906.73
2018-02-04T18:03:55.944Z,101908.94
2018-02-04T18:06:27.261Z,101914.63
2018-02-04T18:08:58.592Z,101916.08
2018-02-04T18:11:29.768Z,101920.00
2018-02-04T18:14:00.876Z,101912.20
2018-02-04T18:16:32.212Z,101916.05
2018-02-04T18:19:03.453Z,101918.05
2018-02-04T18:21:34.592Z,101918.64
2018-02-04T18:24:05.898Z,101905.16
